createdAt,value
2022-10-13T00:00:18.729Z,101332.81
2022-10-13T00:02:48.619Z,101335.89
2022-10-13T00:05:18.096Z,101335.89
2022-10-13T00:07:47.629Z,101336.59
2022-10-13T00:10:18.362Z,101322.11
2022-10-13T00:12:47.361Z,101333.02
2022-10-13T00:15:18.769Z,101330.80
2022-10-13T00:17:49.352Z,101335.03
2022-10-13T00:20:18.504Z,101337.91
2022-10-13T00:22:47.569Z,101336.55
2022-10-13T00:25:17.655Z,101333.83
2022-10-13T00:27:48.894Z,101329.43
2022-10-13T00:30:18.914Z,101331.84
2022-10-13T00:32:49.316Z,101323.52
2022-10-13T00:35:18.579Z,101327.14
2022-10-13T00:37:48.332Z,101327.49
2022-10-13T00:40:18.535Z,101328.70
2022-10-13T00:42:49.738Z,101331.28
2022-10-13T00:45:23.696Z,101333.30
2022-10-13T00:47:56.862Z,101330.42
2022-10-13T00:50:38.527Z,101332.64
2022-10-13T00:53:08.609Z,101329.72
2022-10-13T00:55:39.536Z,101321.80
2022-10-13T00:58:10.784Z,101327.26
2022-10-13T01:00:42.015Z,101320.28
2022-10-13T01:03:11.970Z,101323.05
2022-10-13T01:05:43.175Z,101325.13
2022-10-13T01:08:15.612Z,101324.27
2022-10-13T01:11:05.831Z,101330.58
2022-10-13T01:14:07.044Z,101324.06
2022-10-13T01:16:58.638Z,101319.67
2022-10-13T01:19:59.436Z,101317.14
2022-10-13T01:22:52.128Z,101315.77
2022-10-13T01:25:38.937Z,101312.89
2022-10-13T01:28:33.724Z,101316.67
2022-10-13T01:31:18.215Z,101309.39
2022-10-13T01:34:13.387Z,101311.61
2022-10-13T01:37:12.272Z,101308.22
2022-10-13T01:39:54.677Z,101315.08
2022-10-13T01:42:41.187Z,101301.83
2022-10-13T01:45:12.568Z,101310.36
2022-10-13T01:47:42.924Z,101299.45
2022-10-13T01:50:12.303Z,101305.92
2022-10-13T01:52:42.800Z,101308.10
2022-10-13T01:55:13.300Z,101311.49
2022-10-13T01:57:45.600Z,101302.11
2022-10-13T02:00:19.924Z,101310.09
2022-10-13T02:03:15.768Z,101306.31
2022-10-13T02:05:56.516Z,101310.91
2022-10-13T02:08:47.865Z,101306.47
2022-10-13T02:11:24.462Z,101303.90
2022-10-13T02:14:13.318Z,101302.69
2022-10-13T02:16:44.315Z,101306.47
2022-10-13T02:19:15.807Z,101305.80
2022-10-13T02:21:47.770Z,101305.84
2022-10-13T02:24:19.426Z,101306.55
2022-10-13T02:26:50.827Z,101306.23
2022-10-13T02:29:22.555Z,101305.41
2022-10-13T02:31:54.890Z,101315.16
2022-10-13T02:34:25.425Z,101318.94
2022-10-13T02:36:56.271Z,101316.05
2022-10-13T02:39:26.052Z,101305.14
2022-10-13T02:41:56.859Z,101320.65
2022-10-13T02:44:27.243Z,101308.56
2022-10-13T02:46:56.642Z,101311.99
2022-10-13T02:49:25.655Z,101308.77
2022-10-13T02:51:55.849Z,101301.09
2022-10-13T02:54:24.948Z,101307.05
2022-10-13T02:56:54.303Z,101304.63
2022-10-13T02:59:23.799Z,101307.36
2022-10-13T03:01:53.510Z,101304.63
2022-10-13T03:04:24.866Z,101304.48
2022-10-13T03:06:55.947Z,101306.19
2022-10-13T03:09:26.397Z,101308.56
2022-10-13T03:11:57.129Z,101305.33
2022-10-13T03:14:26.617Z,101304.67
2022-10-13T03:16:56.071Z,101302.29
2022-10-13T03:19:25.308Z,101302.64
2022-10-13T03:21:54.986Z,101304.52
2022-10-13T03:24:24.470Z,101306.06
2022-10-13T03:26:53.386Z,101302.16
2022-10-13T03:29:23.188Z,101303.95
2022-10-13T03:31:52.657Z,101296.11
2022-10-13T03:34:24.665Z,101298.14
2022-10-13T03:36:55.853Z,101302.90
2022-10-13T03:39:26.510Z,101303.88
2022-10-13T03:41:56.559Z,101298.80
2022-10-13T03:44:26.070Z,101301.53
2022-10-13T03:46:57.485Z,101301.66
2022-10-13T03:49:26.322Z,101306.14
2022-10-13T03:51:55.114Z,101305.98
2022-10-13T03:54:24.417Z,101310.92
2022-10-13T03:56:56.188Z,101311.78
2022-10-13T03:59:25.122Z,101312.33
2022-10-13T04:01:54.348Z,101320.19
2022-10-13T04:04:24.295Z,101315.78
2022-10-13T04:06:57.312Z,101315.63
2022-10-13T04:09:27.979Z,101314.27
2022-10-13T04:11:59.722Z,101315.98
2022-10-13T04:14:28.710Z,101320.92
2022-10-13T04:17:00.398Z,101320.77
2022-10-13T04:19:32.420Z,101326.42
2022-10-13T04:22:03.598Z,101329.15
2022-10-13T04:24:33.968Z,101320.27
2022-10-13T04:27:03.329Z,101327.08
2022-10-13T04:29:34.617Z,101318.89
2022-10-13T04:32:04.339Z,101321.27
2022-10-13T04:34:33.600Z,101316.99
2022-10-13T04:37:02.747Z,101318.67
2022-10-13T04:39:33.180Z,101317.47
2022-10-13T04:42:02.383Z,101316.77
2022-10-13T04:44:33.314Z,101319.53
2022-10-13T04:47:02.575Z,101322.80
2022-10-13T04:49:33.183Z,101323.66
2022-10-13T04:52:03.265Z,101323.66
2022-10-13T04:54:32.466Z,101328.09
2022-10-13T04:57:01.823Z,101320.10
2022-10-13T04:59:31.304Z,101325.24
2022-10-13T05:02:00.378Z,101328.16
2022-10-13T05:04:30.258Z,101324.42
2022-10-13T05:07:18.298Z,101326.13
2022-10-13T05:09:33.548Z,101337.23
2022-10-13T05:12:03.169Z,101342.03
2022-10-13T05:14:34.812Z,101335.75
2022-10-13T05:17:05.350Z,101344.66
2022-10-13T05:19:35.013Z,101347.08
2022-10-13T05:22:04.969Z,101347.77
2022-10-13T05:24:38.639Z,101351.20
2022-10-13T05:27:11.059Z,101344.56
2022-10-13T05:29:40.497Z,101354.02
2022-10-13T05:32:09.424Z,101351.31
2022-10-13T05:34:38.208Z,101348.27
2022-10-13T05:37:07.423Z,101353.73
2022-10-13T05:39:37.473Z,101355.77
2022-10-13T05:42:09.102Z,101355.44
2022-10-13T05:44:39.042Z,101355.31
2022-10-13T05:47:08.764Z,101360.62
2022-10-13T05:49:40.888Z,101357.72
2022-10-13T05:52:11.242Z,101363.38
2022-10-13T05:54:47.342Z,101361.16
2022-10-13T05:57:24.466Z,101367.98
2022-10-13T06:00:01.066Z,101363.91
2022-10-13T06:02:34.725Z,101359.30
2022-10-13T06:05:05.559Z,101363.40
2022-10-13T06:07:35.153Z,101359.48
2022-10-13T06:10:04.825Z,101361.55
2022-10-13T06:12:35.508Z,101359.00
2022-10-13T06:15:06.728Z,101360.05
2022-10-13T06:17:38.370Z,101360.58
2022-10-13T06:20:10.670Z,101361.11
2022-10-13T06:22:40.040Z,101364.89
2022-10-13T06:25:10.758Z,101358.23
2022-10-13T06:27:41.188Z,101367.31
2022-10-13T06:30:11.428Z,101367.33
2022-10-13T06:32:42.245Z,101368.38
2022-10-13T06:35:12.365Z,101371.64
2022-10-13T06:37:43.792Z,101368.23
2022-10-13T06:40:14.592Z,101371.14
2022-10-13T06:42:50.703Z,101371.00
2022-10-13T06:45:20.852Z,101373.97
2022-10-13T06:47:49.922Z,101375.87
2022-10-13T06:50:19.607Z,101372.48
2022-10-13T06:52:50.120Z,101381.74
2022-10-13T06:55:19.649Z,101379.36
2022-10-13T06:57:49.982Z,101375.11
2022-10-13T07:00:21.660Z,101375.64
2022-10-13T07:02:52.053Z,101375.48
2022-10-13T07:05:21.776Z,101378.92
2022-10-13T07:07:54.642Z,101373.80
2022-10-13T07:10:24.602Z,101371.75
2022-10-13T07:12:54.872Z,101371.63
2022-10-13T07:15:25.208Z,101371.12
2022-10-13T07:17:55.429Z,101368.73
2022-10-13T07:20:25.506Z,101370.45
2022-10-13T07:22:56.418Z,101366.34
2022-10-13T07:25:27.988Z,101368.56
2022-10-13T07:27:59.535Z,101361.55
2022-10-13T07:30:29.657Z,101362.75
2022-10-13T07:33:00.264Z,101361.55
2022-10-13T07:35:30.990Z,101364.80
2022-10-13T07:38:01.383Z,101370.14
2022-10-13T07:40:31.337Z,101367.91
2022-10-13T07:43:01.537Z,101368.59
2022-10-13T07:45:31.738Z,101374.24
2022-10-13T07:48:00.556Z,101365.68
2022-10-13T07:50:30.488Z,101372.19
2022-10-13T07:52:59.873Z,101372.73
2022-10-13T07:55:28.941Z,101373.06
2022-10-13T07:58:03.487Z,101373.73
2022-10-13T08:00:34.925Z,101376.30
2022-10-13T08:03:06.747Z,101377.66
2022-10-13T08:05:39.011Z,101373.88
2022-10-13T08:08:07.623Z,101377.98
2022-10-13T08:10:37.988Z,101372.31
2022-10-13T08:13:07.262Z,101375.38
2022-10-13T08:15:38.013Z,101371.42
2022-10-13T08:18:09.227Z,101376.88
2022-10-13T08:20:43.916Z,101378.06
2022-10-13T08:23:13.921Z,101375.16
2022-10-13T08:25:45.060Z,101372.40
2022-10-13T08:28:25.795Z,101374.78
2022-10-13T08:30:59.399Z,101371.69
2022-10-13T08:33:29.227Z,101378.19
2022-10-13T08:35:59.102Z,101377.84
2022-10-13T08:38:28.699Z,101375.25
2022-10-13T08:40:57.850Z,101379.70
2022-10-13T08:43:27.602Z,101376.61
2022-10-13T08:46:00.936Z,101373.69
2022-10-13T08:48:32.906Z,101374.00
2022-10-13T08:51:03.703Z,101373.28
2022-10-13T08:53:39.888Z,101378.56
2022-10-13T08:56:22.399Z,101372.20
2022-10-13T08:58:53.917Z,101376.63
2022-10-13T09:01:26.979Z,101380.36
2022-10-13T09:04:33.006Z,101374.70
2022-10-13T09:07:23.512Z,101380.68
2022-10-13T09:09:55.567Z,101381.36
2022-10-13T09:12:26.604Z,101376.91
2022-10-13T09:15:09.610Z,101384.94
2022-10-13T09:17:40.717Z,101382.31
2022-10-13T09:20:23.493Z,101379.36
2022-10-13T09:23:21.498Z,101382.92
2022-10-13T09:25:51.912Z,101380.66
2022-10-13T09:28:30.044Z,101378.73
2022-10-13T09:31:03.532Z,101374.59
2022-10-13T09:33:36.948Z,101372.99
2022-10-13T09:36:13.807Z,101379.13
2022-10-13T09:38:47.202Z,101371.73
2022-10-13T09:41:21.393Z,101368.43
2022-10-13T09:43:56.029Z,101365.31
2022-10-13T09:46:48.896Z,101362.05
2022-10-13T09:49:44.809Z,101364.12
2022-10-13T09:52:17.740Z,101365.30
2022-10-13T09:54:53.022Z,101358.77
2022-10-13T09:57:47.204Z,101357.50
2022-10-13T10:00:24.790Z,101362.63
2022-10-13T10:03:20.469Z,101354.34
2022-10-13T10:05:58.227Z,101350.50
2022-10-13T10:09:03.352Z,101353.73
2022-10-13T10:11:37.920Z,101353.36
2022-10-13T10:14:28.123Z,101342.83
2022-10-13T10:17:19.473Z,101352.08
2022-10-13T10:20:06.331Z,101347.58
2022-10-13T10:23:17.749Z,101346.34
2022-10-13T10:25:51.126Z,101347.34
2022-10-13T10:28:58.324Z,101344.92
2022-10-13T10:32:07.511Z,101346.64
2022-10-13T10:34:45.418Z,101338.91
2022-10-13T10:37:38.130Z,101346.78
2022-10-13T10:40:57.251Z,101341.42
2022-10-13T10:43:41.377Z,101336.77
2022-10-13T10:46:20.539Z,101334.69
2022-10-13T10:48:55.280Z,101340.52
2022-10-13T10:51:29.415Z,101334.83
2022-10-13T10:54:09.261Z,101332.93
2022-10-13T10:56:42.585Z,101327.23
2022-10-13T10:59:40.551Z,101325.53
2022-10-13T11:02:33.017Z,101327.05
2022-10-13T11:05:06.114Z,101327.05
2022-10-13T11:07:48.779Z,101325.67
2022-10-13T11:10:21.140Z,101329.94
2022-10-13T11:12:57.513Z,101328.04
2022-10-13T11:15:33.470Z,101332.34
2022-10-13T11:18:07.578Z,101333.00
2022-10-13T11:20:48.294Z,101327.83
2022-10-13T11:23:26.877Z,101329.34
2022-10-13T11:26:22.359Z,101325.41
2022-10-13T11:28:52.485Z,101325.59
2022-10-13T11:31:32.050Z,101321.86
2022-10-13T11:34:02.177Z,101323.39
2022-10-13T11:36:56.138Z,101325.48
2022-10-13T11:42:32.667Z,101319.55
2022-10-13T11:45:06.541Z,101321.27
2022-10-13T11:47:47.851Z,101319.69
2022-10-13T11:50:39.269Z,101325.53
2022-10-13T11:53:24.596Z,101323.11
2022-10-13T11:55:58.656Z,101321.55
2022-10-13T11:58:33.761Z,101319.98
2022-10-13T12:01:08.534Z,101312.38
2022-10-13T12:03:40.918Z,101312.56
2022-10-13T12:06:37.106Z,101315.78
2022-10-13T12:09:21.067Z,101310.80
2022-10-13T12:12:03.718Z,101306.28
2022-10-13T12:14:42.956Z,101304.06
2022-10-13T12:17:29.795Z,101297.18
2022-10-13T12:20:06.925Z,101296.00
2022-10-13T12:22:40.156Z,101296.00
2022-10-13T12:25:10.230Z,101298.75
2022-10-13T12:27:47.110Z,101294.29
2022-10-13T12:30:22.969Z,101295.47
2022-10-13T12:32:54.467Z,101294.23
2022-10-13T12:35:32.278Z,101297.31
2022-10-13T12:38:09.578Z,101292.34
2022-10-13T12:40:41.707Z,101288.54
2022-10-13T12:43:13.234Z,101293.00
2022-10-13T12:45:45.329Z,101286.45
2022-10-13T12:48:35.730Z,101288.67
2022-10-13T12:51:19.205Z,101291.43
2022-10-13T12:53:48.556Z,101288.02
2022-10-13T12:56:30.723Z,101281.86
2022-10-13T12:59:00.949Z,101284.47
2022-10-13T13:01:34.846Z,101277.26
2022-10-13T13:04:27.747Z,101280.20
2022-10-13T13:07:01.361Z,101273.19
2022-10-13T13:09:37.572Z,101282.30
2022-10-13T13:12:14.876Z,101280.22
2022-10-13T13:14:49.505Z,101275.44
2022-10-13T13:17:45.235Z,101280.61
2022-10-13T13:19:55.484Z,101276.20
2022-10-13T13:22:29.438Z,101277.58
2022-10-13T13:24:58.802Z,101272.08
2022-10-13T13:27:34.639Z,101267.43
2022-10-13T13:30:04.194Z,101269.66
2022-10-13T13:32:34.243Z,101266.71
2022-10-13T13:35:05.653Z,101264.63
2022-10-13T13:37:43.377Z,101268.56
2022-10-13T13:40:19.672Z,101267.84
2022-10-13T13:42:49.386Z,101264.74
2022-10-13T13:45:21.127Z,101267.32
2022-10-13T13:47:56.749Z,101268.37
2022-10-13T13:50:27.655Z,101260.83
2022-10-13T13:53:00.956Z,101264.81
2022-10-13T13:55:30.616Z,101267.23
2022-10-13T13:58:00.571Z,101263.30
2022-10-13T14:00:31.510Z,101260.41
2022-10-13T14:03:01.566Z,101254.25
2022-10-13T14:05:31.479Z,101254.45
2022-10-13T14:08:01.998Z,101250.84
2022-10-13T14:10:31.838Z,101252.41
2022-10-13T14:13:02.724Z,101255.34
2022-10-13T14:15:33.473Z,101256.06
2022-10-13T14:18:04.625Z,101252.98
2022-10-13T14:20:34.964Z,101254.55
2022-10-13T14:23:04.515Z,101258.53
2022-10-13T14:25:34.927Z,101257.02
2022-10-13T14:28:04.552Z,101251.05
2022-10-13T14:30:34.145Z,101256.08
2022-10-13T14:33:04.821Z,101250.81
2022-10-13T14:35:33.748Z,101253.09
2022-10-13T14:38:04.686Z,101248.83
2022-10-13T14:40:35.851Z,101252.29
2022-10-13T14:43:05.695Z,101247.83
2022-10-13T14:45:37.954Z,101245.98
2022-10-13T14:48:08.178Z,101245.66
2022-10-13T14:50:38.403Z,101243.28
2022-10-13T14:53:11.356Z,101238.36
2022-10-13T14:55:41.186Z,101239.74
2022-10-13T14:58:11.664Z,101244.57
2022-10-13T15:00:43.147Z,101240.83
2022-10-13T15:03:13.481Z,101242.25
2022-10-13T15:05:43.722Z,101242.29
2022-10-13T15:08:13.474Z,101240.30
2022-10-13T15:10:42.820Z,101235.17
2022-10-13T15:13:12.119Z,101245.88
2022-10-13T15:15:48.414Z,101238.71
2022-10-13T15:18:17.406Z,101243.58
2022-10-13T15:20:50.087Z,101240.53
2022-10-13T15:23:20.163Z,101238.91
2022-10-13T15:25:59.017Z,101237.91
2022-10-13T15:28:31.851Z,101237.23
2022-10-13T15:31:01.848Z,101236.42
2022-10-13T15:33:31.505Z,101240.91
2022-10-13T15:36:02.087Z,101247.65
2022-10-13T15:38:31.070Z,101247.34
2022-10-13T15:41:02.585Z,101256.31
2022-10-13T15:43:32.327Z,101254.30
2022-10-13T15:46:08.715Z,101258.80
2022-10-13T15:48:38.125Z,101274.44
2022-10-13T15:51:13.982Z,101262.63
2022-10-13T15:53:44.004Z,101260.75
2022-10-13T15:56:14.961Z,101255.10
2022-10-13T15:58:46.574Z,101260.95
2022-10-13T16:01:15.828Z,101263.38
2022-10-13T16:03:44.585Z,101263.39
2022-10-13T16:06:16.031Z,101263.08
2022-10-13T16:08:45.952Z,101275.26
2022-10-13T16:11:17.026Z,101267.05
2022-10-13T16:13:48.414Z,101266.89
2022-10-13T16:16:17.837Z,101261.41
2022-10-13T16:18:47.486Z,101274.78
2022-10-13T16:21:23.514Z,101267.25
2022-10-13T16:23:54.439Z,101268.63
2022-10-13T16:26:24.787Z,101266.91
2022-10-13T16:28:58.039Z,101271.05
2022-10-13T16:31:28.817Z,101265.58
2022-10-13T16:33:58.297Z,101273.30
2022-10-13T16:36:28.255Z,101263.91
2022-10-13T16:38:59.389Z,101268.70
2022-10-13T16:41:28.296Z,101260.16
2022-10-13T16:43:57.290Z,101265.14
2022-10-13T16:46:27.452Z,101262.58
2022-10-13T16:48:57.195Z,101263.78
2022-10-13T16:51:28.887Z,101258.14
2022-10-13T16:54:03.945Z,101259.69
2022-10-13T16:56:31.375Z,101253.69
2022-10-13T16:59:02.372Z,101262.94
2022-10-13T17:01:32.406Z,101259.52
2022-10-13T17:04:02.289Z,101260.20
2022-10-13T17:06:31.089Z,101264.99
2022-10-13T17:09:03.351Z,101259.34
2022-10-13T17:11:34.361Z,101258.82
2022-10-13T17:14:05.490Z,101257.27
2022-10-13T17:16:37.028Z,101252.31
2022-10-13T17:19:07.548Z,101251.97
2022-10-13T17:21:37.754Z,101251.63
2022-10-13T17:24:09.222Z,101259.35
2022-10-13T17:26:38.279Z,101257.13
2022-10-13T17:29:07.474Z,101252.85
2022-10-13T17:31:37.630Z,101256.28
2022-10-13T17:34:09.183Z,101253.37
2022-10-13T17:36:39.630Z,101251.14
2022-10-13T17:39:13.723Z,101251.64
2022-10-13T17:41:43.420Z,101254.05
2022-10-13T17:44:13.567Z,101247.20
2022-10-13T17:46:48.797Z,101251.64
2022-10-13T17:49:18.539Z,101249.94
2022-10-13T17:51:51.551Z,101247.88
2022-10-13T17:54:21.034Z,101251.81
2022-10-13T17:56:51.006Z,101249.58
2022-10-13T17:59:20.641Z,101250.28
2022-10-13T18:01:51.013Z,101254.58
2022-10-13T18:04:22.116Z,101253.00
2022-10-13T18:06:51.710Z,101251.13
2022-10-13T18:09:24.282Z,101253.34
2022-10-13T18:11:55.425Z,101245.50
2022-10-13T18:14:27.023Z,101249.95
2022-10-13T18:16:56.396Z,101254.40
2022-10-13T18:19:26.872Z,101255.25
2022-10-13T18:21:56.124Z,101259.02
2022-10-13T18:24:26.106Z,101259.53
2022-10-13T18:26:56.029Z,101267.05
2022-10-13T18:29:27.253Z,101258.14
2022-10-13T18:31:57.093Z,101255.58
2022-10-13T18:34:26.512Z,101261.58
2022-10-13T18:36:58.172Z,101258.84
2022-10-13T18:39:29.229Z,101260.03
2022-10-13T18:41:59.066Z,101256.27
2022-10-13T18:44:30.250Z,101264.14
2022-10-13T18:47:00.585Z,101263.28
2022-10-13T18:49:31.357Z,101261.91
2022-10-13T18:52:01.473Z,101262.95
2022-10-13T18:54:31.794Z,101263.80
2022-10-13T18:57:01.623Z,101260.72
2022-10-13T18:59:30.868Z,101267.05
2022-10-13T19:02:01.332Z,101269.62
2022-10-13T19:04:31.204Z,101265.67
2022-10-13T19:07:02.032Z,101269.64
2022-10-13T19:09:31.050Z,101269.78
2022-10-13T19:12:00.512Z,101265.67
2022-10-13T19:14:31.532Z,101269.12
2022-10-13T19:17:02.255Z,101271.53
2022-10-13T19:19:32.515Z,101275.98
2022-10-13T19:22:03.727Z,101273.75
2022-10-13T19:24:32.667Z,101277.01
2022-10-13T19:27:02.044Z,101263.30
2022-10-13T19:29:34.234Z,101269.12
2022-10-13T19:32:04.590Z,101269.63
2022-10-13T19:34:34.562Z,101274.08
2022-10-13T19:37:04.992Z,101272.53
2022-10-13T19:39:34.886Z,101276.82
2022-10-13T19:42:04.514Z,101274.77
2022-10-13T19:44:35.960Z,101274.25
2022-10-13T19:47:05.872Z,101271.17
2022-10-13T19:49:37.865Z,101279.23
2022-10-13T19:52:07.423Z,101273.91
2022-10-13T19:54:40.349Z,101280.08
2022-10-13T19:57:10.772Z,101280.77
2022-10-13T19:59:44.052Z,101281.62
2022-10-13T20:02:12.228Z,101278.02
2022-10-13T20:04:41.610Z,101278.88
2022-10-13T20:07:11.188Z,101283.50
2022-10-13T20:09:42.461Z,101281.11
2022-10-13T20:12:14.022Z,101280.08
2022-10-13T20:14:45.808Z,101283.83
2022-10-13T20:17:16.385Z,101286.22
2022-10-13T20:19:45.849Z,101288.96
2022-10-13T20:22:15.395Z,101280.41
2022-10-13T20:24:46.003Z,101284.69
2022-10-13T20:27:15.626Z,101276.64
2022-10-13T20:29:44.557Z,101282.81
2022-10-13T20:32:15.250Z,101282.65
2022-10-13T20:34:44.415Z,101286.42
2022-10-13T20:37:14.262Z,101292.92
2022-10-13T20:39:44.634Z,101282.81
2022-10-13T20:42:14.876Z,101280.41
2022-10-13T20:44:45.303Z,101280.92
2022-10-13T20:47:19.602Z,101285.73
2022-10-13T20:49:49.555Z,101280.59
2022-10-13T20:52:21.060Z,101286.08
2022-10-13T20:54:50.181Z,101282.30
2022-10-13T20:57:19.855Z,101280.25
2022-10-13T20:59:50.321Z,101280.08
2022-10-13T21:02:20.894Z,101285.89
2022-10-13T21:04:52.807Z,101288.30
2022-10-13T21:07:22.943Z,101285.91
2022-10-13T21:09:54.046Z,101283.52
2022-10-13T21:12:23.837Z,101281.98
2022-10-13T21:14:54.086Z,101280.09
2022-10-13T21:17:24.412Z,101284.88
2022-10-13T21:19:56.228Z,101276.15
2022-10-13T21:22:26.087Z,101275.97
2022-10-13T21:24:54.950Z,101271.34
2022-10-13T21:27:24.697Z,101270.49
2022-10-13T21:29:53.609Z,101268.61
2022-10-13T21:32:22.622Z,101277.34
2022-10-13T21:34:53.963Z,101277.86
2022-10-13T21:37:24.897Z,101270.49
2022-10-13T21:39:55.025Z,101282.48
2022-10-13T21:42:24.836Z,101277.18
2022-10-13T21:44:54.061Z,101279.74
2022-10-13T21:47:25.202Z,101279.23
2022-10-13T21:49:54.138Z,101278.38
2022-10-13T21:52:24.187Z,101283.34
2022-10-13T21:54:53.675Z,101283.00
2022-10-13T21:57:23.457Z,101285.23
2022-10-13T21:59:53.345Z,101282.83
2022-10-13T22:02:22.752Z,101281.28
2022-10-13T22:04:51.906Z,101281.63
2022-10-13T22:07:22.551Z,101281.45
2022-10-13T22:09:51.926Z,101286.08
2022-10-13T22:12:21.620Z,101281.28
2022-10-13T22:14:52.412Z,101279.07
2022-10-13T22:17:22.854Z,101289.48
2022-10-13T22:19:55.333Z,101281.27
2022-10-13T22:22:30.098Z,101284.36
2022-10-13T22:24:56.763Z,101281.45
2022-10-13T22:27:27.773Z,101283.00
2022-10-13T22:29:57.019Z,101281.11
2022-10-13T22:32:27.068Z,101281.28
2022-10-13T22:34:56.018Z,101283.84
2022-10-13T22:37:25.288Z,101281.45
2022-10-13T22:39:55.599Z,101282.48
2022-10-13T22:42:25.329Z,101284.87
2022-10-13T22:44:54.725Z,101284.19
2022-10-13T22:47:24.657Z,101288.81
2022-10-13T22:49:53.949Z,101285.22
2022-10-13T22:52:25.176Z,101281.97
2022-10-13T22:54:55.839Z,101278.38
2022-10-13T22:57:25.060Z,101281.45
2022-10-13T22:59:55.158Z,101280.42
2022-10-13T23:02:24.430Z,101280.59
2022-10-13T23:04:54.223Z,101282.64
2022-10-13T23:07:24.553Z,101279.91
2022-10-13T23:09:53.364Z,101283.34
2022-10-13T23:12:23.002Z,101284.36
2022-10-13T23:14:52.830Z,101283.84
2022-10-13T23:17:22.816Z,101284.53
2022-10-13T23:19:58.145Z,101290.35
2022-10-13T23:22:28.005Z,101286.25
2022-10-13T23:24:58.931Z,101290.87
2022-10-13T23:27:28.359Z,101292.42
2022-10-13T23:29:59.774Z,101291.22
2022-10-13T23:32:29.715Z,101292.08
2022-10-13T23:34:59.839Z,101288.82
2022-10-13T23:37:30.578Z,101286.59
2022-10-13T23:40:00.384Z,101280.61
2022-10-13T23:42:29.808Z,101279.92
2022-10-13T23:44:58.668Z,101283.34
2022-10-13T23:47:28.772Z,101277.35
2022-10-13T23:49:58.116Z,101278.38
2022-10-13T23:52:27.505Z,101279.73
2022-10-13T23:54:56.138Z,101270.49
2022-10-13T23:57:29.631Z,101272.88
2022-10-13T23:59:58.795Z,101268.78
